Kapaa, HI

9:53 PM HST on January 23, 2017 (GMT -1000)
Kalihiwai Ridge - Top of Halaulani Road | | Change Station
Active Advisory: Small Craft Advisory

Elev 561 ft 22.17 °N, 159.44 °W | Updated 4 seconds ago

Mostly Cloudy
Mostly Cloudy
69.1 °F
Feels Like 69.1 °F
N
0.0
Wind Variable Wind from West
Gusts 0.0 mph

Today
High -- | Low -- °F
--% Chance of Precip.
Yesterday
High -- | Low -- °F
Precip. -- in
Pressure 30.17 in
Visibility 10.0 miles
Clouds Mostly Cloudy 1400 ft
Dew Point 68 °F
Humidity 97%
Rainfall 1.17 in
Snow Depth Not available.
7:18 AM 6:21 PM
Waning Crescent, 13% visible
SPECI PHLI 240736Z 07013KT 10SM BKN014 23/20 A3017 RMK AO2 T02280200
Pressure 30.17 in
Visibility 10.0 miles
Clouds Mostly Cloudy 1400 ft
Dew Point 68 °F
Humidity 97%
Rainfall 1.17 in
Snow Depth Not available.
7:18 AM 6:21 PM
Waning Crescent, 13% visible
SPECI PHLI 240736Z 07013KT 10SM BKN014 23/20 A3017 RMK AO2 T02280200

Get Your Daily Forecast Email!

Thanks for signing up!

Be on the lookout for a verification email in your inbox.

You'll start receiving the daily forecast at 8 AM.

×

10-Day Weather Forecast

Almanac

Astronomy

Jan. 23, 2017 Rise Set
Actual Time
Civil Twilight
Nautical Twilight
Astronomical Twilight
Moon
Length of Visible Light
Length of Day
Tomorrow will be .
, % of the Moon is Illuminated

Today's Extremes

State Highs State Lows

Community

WunderPhotos

Upload Photos

1,962,540 photos uploaded!

WunderBlog® & News

Nearby

Air Quality

  Air Quality AQ Index Pollutant
Not available.

Snow Depth

Station Depth Elevation

Earthquake Activity

City Distance Mag. Time & Date
Minimum magnitude displayed is 2.5.

Coastal Water Temperatures

Place Temperature

Stations

Nearby Weather Stations

Station Location Temp. Windchill Dew Point Humidity Wind Precip. Elev Updated Type
                   

Watches & Warnings

Small Craft Advisory
Issued: 7:52 PM HST Jan. 23, 2017 – National Weather Service

... Small Craft Advisory now in effect until 6 PM HST Wednesday...

* winds... east 10 to 20 kt.

* Seas... 9 to 12 ft.

* Timing... through Wednesday afternoon.

Precautionary/preparedness actions...

A Small Craft Advisory means that wind speeds of 25 to 33 knots
and/or seas 10 feet or greater are expected to produce conditions
hazardous to small craft. Inexperienced mariners... especially
those operating smaller vessels... should avoid navigating in
these conditions.